Time;durP1;ratioP1;P1;durP2;ratioP2;P2;SDS_P1;SDS_P2;PMS_P1;PMS_P2;Temp;Humidity;BMP_temperature;BMP_pressure;BME280_temperature;BME280_humidity;BME280_pressure;Samples;Min_cycle;Max_cycle;Signal;HPM_P1;HPM_P2
2024/04/13 00:00:05;;;;;;;12.05;5.10;;;15.90;99.90;;;;;;5439987;26;19999;-70
2024/04/13 00:02:32;;;;;;;11.80;5.68;;;15.90;99.90;;;;;;5437109;26;20010;-70
2024/04/13 00:04:58;;;;;;;10.45;5.32;;;15.90;99.90;;;;;;5429727;26;20002;-69
2024/04/13 00:07:24;;;;;;;9.32;5.20;;;15.80;99.90;;;;;;5442722;26;20017;-69
2024/04/13 00:09:50;;;;;;;13.07;5.57;;;15.80;99.90;;;;;;5438892;26;19998;-69
2024/04/13 00:12:15;;;;;;;8.07;5.25;;;15.80;99.90;;;;;;5404774;26;20007;-70
2024/04/13 00:14:41;;;;;;;10.60;5.65;;;15.80;99.90;;;;;;5400731;26;20018;-68
2024/04/13 00:17:07;;;;;;;9.57;5.00;;;15.70;99.90;;;;;;5395406;26;20004;-69
2024/04/13 00:19:34;;;;;;;10.30;5.15;;;15.80;99.90;;;;;;5394233;26;20010;-69
2024/04/13 00:22:00;;;;;;;12.70;5.80;;;15.70;99.90;;;;;;5401671;26;20006;-70
2024/04/13 00:24:26;;;;;;;9.15;5.53;;;15.80;99.90;;;;;;5397658;26;19999;-69
2024/04/13 00:26:52;;;;;;;12.00;5.90;;;15.70;99.90;;;;;;5393343;26;19996;-70
2024/04/13 00:29:18;;;;;;;9.90;5.53;;;15.70;99.90;;;;;;5402745;26;20020;-69
2024/04/13 00:31:44;;;;;;;13.38;5.70;;;15.80;99.90;;;;;;5400514;26;19995;-69
2024/04/13 00:34:10;;;;;;;7.72;5.28;;;15.80;99.90;;;;;;5403475;26;20085;-69
2024/04/13 00:36:36;;;;;;;11.32;5.75;;;15.80;99.90;;;;;;5405443;26;20043;-69
2024/04/13 00:39:04;;;;;;;9.38;6.03;;;15.70;99.90;;;;;;5404029;26;20028;-68
2024/04/13 00:41:31;;;;;;;11.32;6.18;;;15.70;99.90;;;;;;5399839;26;20011;-68
2024/04/13 00:43:57;;;;;;;13.65;6.22;;;15.80;99.90;;;;;;5401695;26;20076;-68
2024/04/13 00:46:25;;;;;;;9.77;5.40;;;15.70;99.90;;;;;;5396416;26;19996;-70
2024/04/13 00:48:53;;;;;;;15.02;5.75;;;15.70;99.90;;;;;;5405175;26;20008;-69
2024/04/13 00:51:23;;;;;;;10.98;5.57;;;15.70;99.90;;;;;;5394399;26;20516;-69
2024/04/13 00:53:49;;;;;;;10.98;6.07;;;15.70;99.90;;;;;;5396994;26;20000;-68
2024/04/13 00:56:15;;;;;;;9.40;5.63;;;15.70;99.90;;;;;;5398153;26;20057;-68
2024/04/13 00:58:42;;;;;;;12.70;6.53;;;15.70;99.90;;;;;;5406647;26;20008;-69
2024/04/13 01:01:10;;;;;;;14.50;6.28;;;15.70;99.90;;;;;;5396253;26;20006;-69
2024/04/13 01:03:38;;;;;;;12.52;6.18;;;15.70;99.90;;;;;;5407116;26;20003;-68
2024/04/13 01:06:06;;;;;;;13.23;6.18;;;15.70;99.90;;;;;;5407050;26;20459;-69
2024/04/13 01:08:34;;;;;;;10.00;6.10;;;15.70;99.90;;;;;;5428555;26;20028;-69
2024/04/13 01:11:00;;;;;;;13.07;6.25;;;15.70;99.90;;;;;;5397444;26;20079;-70
2024/04/13 01:13:26;;;;;;;11.77;5.93;;;15.60;99.90;;;;;;5393409;26;20342;-69
2024/04/13 01:15:52;;;;;;;12.13;6.25;;;15.60;99.90;;;;;;5398641;26;20015;-69
2024/04/13 01:18:18;;;;;;;13.55;6.07;;;15.60;99.90;;;;;;5390489;26;20409;-69
2024/04/13 01:20:43;;;;;;;11.75;5.88;;;15.60;99.90;;;;;;5405124;26;20865;-70
2024/04/13 01:23:11;;;;;;;16.05;6.53;;;15.60;99.90;;;;;;5401768;26;20082;-68
2024/04/13 01:25:38;;;;;;;;;;;15.60;99.90;;;;;;5401506;26;20464;-70
2024/04/13 01:28:04;;;;;;;11.00;6.55;;;15.50;99.90;;;;;;5394423;26;20471;-72
2024/04/13 01:30:31;;;;;;;14.20;6.38;;;15.50;99.90;;;;;;5403231;26;20664;-69
2024/04/13 01:32:57;;;;;;;16.58;6.32;;;15.50;99.90;;;;;;5396478;26;20009;-68
2024/04/13 01:35:22;;;;;;;12.00;6.32;;;15.50;99.90;;;;;;5405671;26;20000;-69
2024/04/13 01:37:48;;;;;;;15.50;6.63;;;15.50;99.90;;;;;;5405293;26;20004;-70
2024/04/13 01:40:13;;;;;;;11.85;6.05;;;15.50;99.90;;;;;;5402261;26;20545;-71
2024/04/13 01:42:41;;;;;;;14.32;7.03;;;15.50;99.90;;;;;;5402860;26;20004;-69
2024/04/13 01:45:07;;;;;;;11.35;7.00;;;15.50;99.90;;;;;;5406704;26;20015;-68
2024/04/13 01:47:32;;;;;;;11.68;6.40;;;15.40;99.90;;;;;;5402301;26;20007;-69
2024/04/13 01:49:58;;;;;;;12.82;5.95;;;15.40;99.90;;;;;;5402338;26;20415;-70
2024/04/13 01:52:24;;;;;;;13.73;6.68;;;15.40;99.90;;;;;;5395512;26;20027;-68
2024/04/13 01:54:50;;;;;;;14.70;6.50;;;15.40;99.90;;;;;;5396354;26;20000;-69
2024/04/13 01:57:16;;;;;;;12.02;6.80;;;15.40;99.90;;;;;;5405875;26;20004;-70
2024/04/13 01:59:42;;;;;;;13.73;6.38;;;15.30;99.90;;;;;;5400317;26;20012;-68
2024/04/13 02:02:09;;;;;;;10.15;5.80;;;15.40;99.90;;;;;;5386560;26;20186;-70
2024/04/13 02:04:35;;;;;;;10.27;5.57;;;15.30;99.90;;;;;;5401552;26;20011;-69
2024/04/13 02:07:02;;;;;;;10.43;5.82;;;15.30;99.90;;;;;;5402763;26;20241;-69
2024/04/13 02:09:28;;;;;;;13.98;6.60;;;15.30;99.90;;;;;;5403618;26;20013;-69
2024/04/13 02:11:54;;;;;;;11.43;5.93;;;15.20;99.90;;;;;;5400324;26;20015;-69
2024/04/13 02:14:19;;;;;;;12.77;6.25;;;15.20;99.90;;;;;;5396055;26;19997;-69
2024/04/13 02:16:45;;;;;;;15.02;7.03;;;15.10;99.90;;;;;;5395325;26;20469;-70
2024/04/13 02:19:14;;;;;;;10.88;6.63;;;15.00;99.90;;;;;;5403681;26;20038;-69
2024/04/13 02:21:40;;;;;;;12.18;6.55;;;14.90;99.90;;;;;;5397726;26;20018;-71
2024/04/13 02:24:06;;;;;;;10.13;6.32;;;14.90;99.90;;;;;;5402531;26;20460;-69
2024/04/13 02:26:31;;;;;;;13.43;7.07;;;14.90;99.90;;;;;;5396132;26;20010;-70
2024/04/13 02:28:58;;;;;;;11.88;6.70;;;14.90;99.90;;;;;;5390254;26;20034;-68
2024/04/13 02:31:24;;;;;;;14.98;6.85;;;14.80;99.90;;;;;;5405083;26;20007;-68
2024/04/13 02:33:50;;;;;;;16.45;7.70;;;14.80;99.90;;;;;;5396165;26;20000;-69
2024/04/13 02:36:15;;;;;;;13.15;7.72;;;14.80;99.90;;;;;;5394547;26;20770;-68
2024/04/13 02:38:44;;;;;;;16.58;8.48;;;14.80;99.90;;;;;;5404480;26;20003;-69
2024/04/13 02:41:10;;;;;;;21.05;8.82;;;14.80;99.90;;;;;;5393730;26;20703;-68
2024/04/13 02:43:38;;;;;;;15.40;8.35;;;14.80;99.90;;;;;;5400243;26;20015;-70
2024/04/13 02:46:11;;;;;;;16.92;9.00;;;14.80;99.90;;;;;;5400502;26;20041;-70
2024/04/13 02:48:41;;;;;;;17.00;8.60;;;14.80;99.90;;;;;;5399481;26;20007;-70
2024/04/13 02:51:07;;;;;;;14.27;8.32;;;14.80;99.90;;;;;;5431783;26;20014;-69
2024/04/13 02:53:37;;;;;;;20.52;9.75;;;14.80;99.90;;;;;;5429220;26;19999;-70
2024/04/13 02:56:06;;;;;;;17.02;9.00;;;14.80;99.90;;;;;;5436564;26;19998;-69
2024/04/13 02:58:32;;;;;;;16.02;8.70;;;14.80;99.90;;;;;;5433616;26;19996;-69
2024/04/13 03:00:59;;;;;;;15.93;8.98;;;14.80;99.90;;;;;;5434638;26;20010;-70
2024/04/13 03:03:25;;;;;;;18.55;9.55;;;14.70;99.90;;;;;;5437235;26;20672;-70
2024/04/13 03:06:05;;;;;;;20.33;9.13;;;14.80;99.90;;;;;;5430861;26;20080;-70
2024/04/13 03:08:31;;;;;;;18.15;9.00;;;14.70;99.90;;;;;;5437555;26;19999;-69
2024/04/13 03:10:59;;;;;;;17.67;8.77;;;14.80;99.90;;;;;;5433531;26;20492;-69
2024/04/13 03:13:25;;;;;;;19.65;8.57;;;14.80;99.90;;;;;;5426965;26;20027;-70
2024/04/13 03:16:03;;;;;;;18.02;9.45;;;14.80;99.90;;;;;;5436485;26;20571;-69
2024/04/13 03:18:30;;;;;;;11.95;8.15;;;14.80;99.90;;;;;;5433599;26;20500;-70
2024/04/13 03:20:56;;;;;;;19.70;9.15;;;14.80;99.90;;;;;;5436708;26;20080;-70
2024/04/13 03:23:21;;;;;;;13.55;8.30;;;14.80;99.90;;;;;;5435713;26;20014;-71
2024/04/13 03:25:47;;;;;;;16.00;8.20;;;14.80;99.90;;;;;;5434832;26;20324;-71
2024/04/13 03:28:13;;;;;;;14.75;8.32;;;14.80;99.90;;;;;;5437333;26;20456;-71
2024/04/13 03:30:39;;;;;;;15.63;8.25;;;14.80;99.90;;;;;;5439372;26;20006;-69
2024/04/13 03:33:05;;;;;;;23.25;9.00;;;14.80;99.90;;;;;;5429646;26;20007;-70
2024/04/13 03:35:37;;;;;;;14.25;7.70;;;14.80;99.90;;;;;;5434602;26;20011;-68
2024/04/13 03:38:04;;;;;;;13.48;7.75;;;14.80;99.90;;;;;;5434830;26;20006;-70
2024/04/13 03:40:30;;;;;;;11.35;7.13;;;14.80;99.90;;;;;;5440355;26;20083;-70
2024/04/13 03:42:55;;;;;;;16.75;7.15;;;14.80;99.90;;;;;;5439842;26;20010;-72
2024/04/13 03:45:21;;;;;;;14.98;7.40;;;14.80;99.90;;;;;;5432637;26;20011;-69
2024/04/13 03:47:46;;;;;;;15.18;7.28;;;14.80;99.90;;;;;;5440268;26;20106;-68
2024/04/13 03:50:13;;;;;;;13.60;7.78;;;14.80;99.90;;;;;;5422900;26;20476;-68
2024/04/13 03:52:41;;;;;;;13.55;7.55;;;14.80;99.90;;;;;;5432639;26;20010;-69
2024/04/13 03:55:06;;;;;;;15.55;6.68;;;14.80;99.90;;;;;;5432412;26;20023;-69
2024/04/13 03:57:32;;;;;;;13.90;7.03;;;14.80;99.90;;;;;;5429730;26;20004;-71
2024/04/13 03:59:59;;;;;;;19.13;7.90;;;14.80;99.90;;;;;;5428256;26;19998;-70
2024/04/13 04:02:24;;;;;;;20.80;7.90;;;14.80;99.90;;;;;;5427462;26;19996;-69
2024/04/13 04:04:50;;;;;;;12.98;7.20;;;14.80;99.90;;;;;;5438035;26;20030;-69
2024/04/13 04:07:16;;;;;;;15.48;7.50;;;14.80;99.90;;;;;;5433326;26;20002;-71
2024/04/13 04:09:41;;;;;;;14.55;7.30;;;14.80;99.90;;;;;;5435597;26;20011;-70
2024/04/13 04:12:07;;;;;;;15.02;7.32;;;14.80;99.90;;;;;;5432468;26;19999;-70
2024/04/13 04:14:33;;;;;;;13.48;7.10;;;14.70;99.90;;;;;;5432844;26;21149;-69
2024/04/13 04:16:59;;;;;;;12.70;6.90;;;14.70;99.90;;;;;;5438542;26;20000;-72
2024/04/13 04:19:24;;;;;;;12.27;7.38;;;14.70;99.90;;;;;;5441765;26;20026;-70
2024/04/13 04:21:50;;;;;;;11.02;6.68;;;14.80;99.90;;;;;;5434573;26;20006;-67
2024/04/13 04:24:16;;;;;;;17.38;7.82;;;14.70;99.90;;;;;;5433923;26;20011;-69
2024/04/13 04:26:41;;;;;;;12.65;7.28;;;14.70;99.90;;;;;;5430930;26;20007;-69
2024/04/13 04:29:07;;;;;;;13.98;7.10;;;14.70;99.90;;;;;;5424734;26;20746;-67
2024/04/13 04:31:33;;;;;;;16.58;6.60;;;14.70;99.90;;;;;;5438764;26;20010;-67
2024/04/13 04:34:00;;;;;;;14.02;6.78;;;14.60;99.90;;;;;;5430458;26;20010;-69
2024/04/13 04:36:25;;;;;;;16.00;6.45;;;14.60;99.90;;;;;;5435798;26;20013;-68
2024/04/13 04:38:51;;;;;;;12.23;7.45;;;14.60;99.90;;;;;;5428554;26;20011;-67
2024/04/13 04:41:16;;;;;;;16.35;7.05;;;14.60;99.90;;;;;;5429064;26;19994;-67
2024/04/13 04:43:42;;;;;;;13.38;7.15;;;14.60;99.90;;;;;;5422453;26;20859;-67
2024/04/13 04:46:09;;;;;;;11.32;6.80;;;14.60;99.90;;;;;;5435789;26;20007;-67
2024/04/13 04:48:35;;;;;;;14.25;7.13;;;14.50;99.90;;;;;;5441743;26;20554;-68
2024/04/13 04:51:02;;;;;;;15.85;6.53;;;14.60;99.90;;;;;;5438917;26;20032;-66
2024/04/13 04:53:28;;;;;;;14.07;7.10;;;14.60;99.90;;;;;;5435544;26;20002;-68
2024/04/13 04:55:55;;;;;;;15.63;6.35;;;14.60;99.90;;;;;;5425110;26;20793;-67
2024/04/13 04:58:20;;;;;;;17.17;7.10;;;14.60;99.90;;;;;;5437520;26;20419;-67
2024/04/13 05:00:46;;;;;;;11.05;6.13;;;14.70;99.90;;;;;;5431625;26;19998;-68
2024/04/13 05:03:11;;;;;;;10.70;6.80;;;14.60;99.90;;;;;;5435462;26;20043;-66
2024/04/13 05:05:37;;;;;;;12.15;5.78;;;14.70;99.90;;;;;;5436926;26;20528;-68
2024/04/13 05:08:03;;;;;;;9.95;6.68;;;14.70;99.90;;;;;;5428161;26;20003;-68
2024/04/13 05:10:28;;;;;;;16.73;6.30;;;14.70;99.90;;;;;;5434741;26;20036;-68
2024/04/13 05:12:54;;;;;;;16.10;7.28;;;14.70;99.90;;;;;;5428123;26;20006;-67
2024/04/13 05:15:20;;;;;;;18.13;7.05;;;14.80;99.90;;;;;;5429328;26;20006;-67
2024/04/13 05:17:46;;;;;;;12.20;6.55;;;14.70;99.90;;;;;;5430003;26;20003;-68
2024/04/13 05:20:12;;;;;;;10.50;5.93;;;14.80;99.90;;;;;;5432653;26;20043;-67
2024/04/13 05:22:38;;;;;;;13.80;7.15;;;14.80;99.90;;;;;;5435083;26;20028;-67
2024/04/13 05:25:05;;;;;;;16.17;6.22;;;14.80;99.90;;;;;;5437749;26;19991;-67
2024/04/13 05:27:31;;;;;;;11.52;6.57;;;14.80;99.90;;;;;;5423949;26;19999;-67
2024/04/13 05:30:02;;;;;;;19.33;6.60;;;14.80;99.90;;;;;;5430610;26;20075;-68
2024/04/13 05:32:28;;;;;;;10.30;6.25;;;14.90;99.90;;;;;;5436303;26;20451;-67
2024/04/13 05:34:54;;;;;;;10.68;5.97;;;14.90;99.90;;;;;;5433472;26;20872;-67
2024/04/13 05:37:19;;;;;;;10.82;5.50;;;14.90;99.90;;;;;;5432209;26;19995;-66
2024/04/13 05:39:45;;;;;;;13.90;5.80;;;15.00;99.90;;;;;;5433215;26;20676;-67
2024/04/13 05:42:11;;;;;;;13.75;5.72;;;15.00;99.90;;;;;;5428139;26;20011;-67
2024/04/13 05:44:37;;;;;;;9.48;5.80;;;15.10;99.90;;;;;;5428249;26;20655;-67
2024/04/13 05:47:02;;;;;;;9.05;5.15;;;15.10;99.90;;;;;;5421227;26;20003;-68
2024/04/13 05:49:28;;;;;;;13.25;5.28;;;15.10;99.90;;;;;;5435698;26;20007;-67
2024/04/13 05:51:53;;;;;;;13.50;5.05;;;15.20;99.90;;;;;;5434225;26;20305;-67
2024/04/13 05:54:19;;;;;;;11.60;6.05;;;15.30;99.90;;;;;;5425209;26;19998;-67
2024/04/13 05:56:45;;;;;;;14.25;4.90;;;15.30;99.90;;;;;;5431453;26;20054;-67
2024/04/13 05:59:11;;;;;;;9.13;5.60;;;15.40;99.90;;;;;;5430186;26;19995;-67
2024/04/13 06:01:37;;;;;;;9.63;6.15;;;15.50;99.90;;;;;;5426978;26;20050;-67
2024/04/13 06:04:03;;;;;;;11.93;5.07;;;15.50;99.90;;;;;;5439501;26;20364;-68
2024/04/13 06:06:28;;;;;;;12.82;4.80;;;15.60;99.90;;;;;;5441277;26;20452;-67
2024/04/13 06:08:54;;;;;;;10.95;4.90;;;15.60;99.90;;;;;;5431094;26;20002;-67
2024/04/13 06:11:20;;;;;;;7.32;4.80;;;15.70;99.90;;;;;;5432053;26;20015;-67
2024/04/13 06:13:45;;;;;;;10.23;4.72;;;15.70;99.90;;;;;;5428122;26;20002;-68
2024/04/13 06:16:11;;;;;;;10.63;5.00;;;15.80;99.90;;;;;;5431918;26;20025;-67
2024/04/13 06:18:36;;;;;;;9.50;4.10;;;15.90;99.90;;;;;;5437383;26;21025;-67
2024/04/13 06:21:02;;;;;;;9.32;4.70;;;16.00;99.90;;;;;;5436935;26;20003;-67
2024/04/13 06:23:28;;;;;;;13.85;4.57;;;16.00;99.90;;;;;;5431631;26;20039;-68
2024/04/13 06:25:54;;;;;;;9.55;5.38;;;16.10;99.90;;;;;;5432635;26;20026;-67
2024/04/13 06:28:23;;;;;;;8.68;4.45;;;16.20;99.90;;;;;;5433198;26;20447;-66
2024/04/13 06:30:49;;;;;;;7.65;4.20;;;16.20;99.90;;;;;;5423205;26;20455;-67
2024/04/13 06:33:16;;;;;;;9.55;4.63;;;16.20;99.90;;;;;;5430313;26;20439;-68
2024/04/13 06:35:42;;;;;;;9.98;4.85;;;16.40;99.90;;;;;;5424860;26;20011;-67
2024/04/13 06:38:08;;;;;;;9.98;4.22;;;16.40;99.90;;;;;;5412980;26;20036;-67
2024/04/13 06:40:35;;;;;;;9.93;4.85;;;16.40;99.90;;;;;;5435822;26;20376;-68
2024/04/13 06:43:01;;;;;;;6.53;3.90;;;16.50;99.90;;;;;;5427882;26;20389;-67
2024/04/13 06:45:27;;;;;;;9.55;3.97;;;16.50;99.90;;;;;;5436766;26;20645;-66
2024/04/13 06:47:52;;;;;;;8.75;3.95;;;16.50;99.90;;;;;;5437660;26;19999;-67
2024/04/13 06:50:18;;;;;;;12.40;4.20;;;16.60;99.90;;;;;;5430623;26;20010;-67
2024/04/13 06:52:44;;;;;;;9.10;3.80;;;16.60;99.90;;;;;;5433521;26;20030;-67
2024/04/13 06:55:10;;;;;;;14.23;4.90;;;16.60;99.90;;;;;;5432122;26;20003;-67
2024/04/13 06:57:36;;;;;;;11.00;5.28;;;16.70;99.90;;;;;;5431694;26;20010;-67
2024/04/13 07:00:02;;;;;;;8.18;3.97;;;16.80;99.90;;;;;;5439768;26;20000;-67
2024/04/13 07:02:28;;;;;;;13.98;4.47;;;16.80;99.90;;;;;;5441281;26;19999;-67
2024/04/13 07:04:54;;;;;;;11.20;4.65;;;16.70;99.90;;;;;;5439824;26;19995;-67
2024/04/13 07:07:19;;;;;;;8.85;3.95;;;16.80;99.90;;;;;;5436993;26;19995;-67
2024/04/13 07:09:45;;;;;;;7.38;4.05;;;16.80;99.90;;;;;;5442236;26;20006;-67
2024/04/13 07:12:10;;;;;;;8.40;3.80;;;16.80;99.90;;;;;;5430023;26;20010;-67
2024/04/13 07:14:36;;;;;;;8.85;4.03;;;16.90;99.90;;;;;;5438146;26;20018;-68
2024/04/13 07:17:02;;;;;;;7.65;3.53;;;16.90;99.90;;;;;;5433896;26;20039;-67
2024/04/13 07:19:28;;;;;;;10.40;4.05;;;16.90;99.90;;;;;;5432902;26;20002;-67
2024/04/13 07:21:54;;;;;;;8.00;4.03;;;17.00;99.90;;;;;;5432011;26;20042;-67
2024/04/13 07:24:20;;;;;;;11.95;4.40;;;17.00;99.90;;;;;;5432830;26;20456;-67
2024/04/13 07:26:45;;;;;;;8.70;3.80;;;17.10;99.90;;;;;;5427040;26;20006;-67
2024/04/13 07:29:11;;;;;;;11.13;4.20;;;17.20;99.90;;;;;;5429755;26;20009;-68
2024/04/13 07:31:36;;;;;;;6.90;4.32;;;17.20;99.90;;;;;;5432961;26;19994;-67
2024/04/13 07:34:02;;;;;;;9.20;4.15;;;17.30;99.90;;;;;;5437168;26;20060;-67
2024/04/13 07:36:27;;;;;;;8.05;3.97;;;17.30;99.90;;;;;;5430048;26;20430;-68
2024/04/13 07:38:53;;;;;;;9.80;4.20;;;17.30;99.90;;;;;;5429303;26;19995;-67
2024/04/13 07:41:19;;;;;;;8.48;4.05;;;17.40;99.90;;;;;;5434446;26;20080;-67
2024/04/13 07:43:44;;;;;;;8.60;3.67;;;17.40;99.90;;;;;;5435735;26;19994;-67
2024/04/13 07:46:10;;;;;;;9.13;3.63;;;17.50;99.90;;;;;;5424008;26;19999;-67
2024/04/13 07:48:36;;;;;;;7.78;3.60;;;17.60;99.90;;;;;;5420132;26;20063;-68
2024/04/13 07:51:03;;;;;;;9.95;3.95;;;17.60;99.90;;;;;;5424457;26;19991;-67
2024/04/13 07:53:30;;;;;;;8.68;3.83;;;17.60;99.90;;;;;;5429053;26;20007;-68
2024/04/13 07:55:57;;;;;;;21.20;4.60;;;17.70;99.90;;;;;;5433132;26;20580;-68
2024/04/13 07:58:23;;;;;;;11.65;3.67;;;17.70;99.90;;;;;;5429977;26;20093;-68
2024/04/13 08:00:48;;;;;;;10.50;4.18;;;17.70;99.90;;;;;;5425091;26;20006;-68
2024/04/13 08:03:16;;;;;;;8.07;3.53;;;17.80;99.90;;;;;;5430113;26;19996;-68
2024/04/13 08:05:41;;;;;;;7.40;3.83;;;17.80;99.90;;;;;;5425369;26;19992;-67
2024/04/13 08:08:07;;;;;;;8.20;3.40;;;17.90;99.90;;;;;;5429119;26;20006;-67
2024/04/13 08:10:39;;;;;;;7.25;3.78;;;17.90;99.90;;;;;;5428603;26;20052;-68
2024/04/13 08:13:05;;;;;;;7.60;3.75;;;17.90;99.90;;;;;;5434050;26;19995;-67
2024/04/13 08:15:31;;;;;;;6.93;3.50;;;18.00;99.90;;;;;;5431660;26;20512;-68
2024/04/13 08:17:57;;;;;;;5.60;3.08;;;18.10;99.90;;;;;;5420723;26;19991;-67
2024/04/13 08:20:22;;;;;;;10.73;3.75;;;18.10;99.90;;;;;;5430920;26;20052;-69
2024/04/13 08:22:48;;;;;;;6.43;3.17;;;18.10;99.90;;;;;;5434672;26;20010;-67
2024/04/13 08:25:14;;;;;;;9.00;2.90;;;18.20;99.90;;;;;;5433746;26;20463;-67
2024/04/13 08:27:39;;;;;;;10.82;2.95;;;18.30;99.90;;;;;;5442964;26;20071;-69
2024/04/13 08:30:07;;;;;;;8.23;3.45;;;18.30;99.90;;;;;;5428034;26;19996;-68
2024/04/13 08:32:32;;;;;;;8.80;3.50;;;18.40;99.90;;;;;;5429918;26;20010;-68
2024/04/13 08:34:58;;;;;;;10.45;3.00;;;18.50;99.50;;;;;;5439710;26;20027;-67
2024/04/13 08:37:23;;;;;;;8.50;3.22;;;18.50;99.50;;;;;;5439049;26;19996;-68
2024/04/13 08:39:49;;;;;;;5.68;2.70;;;18.60;99.90;;;;;;5426525;26;20507;-67
2024/04/13 08:42:37;;;;;;;8.85;3.35;;;18.50;99.60;;;;;;5436411;26;20735;-67
2024/04/13 08:45:04;;;;;;;;;;;18.60;99.60;;;;;;5427399;26;20622;-69
2024/04/13 08:47:32;;;;;;;7.15;2.90;;;18.60;99.40;;;;;;5423107;26;19925;-67
2024/04/13 08:49:59;;;;;;;7.55;2.88;;;18.60;99.40;;;;;;5439130;26;19994;-68
2024/04/13 08:52:30;;;;;;;5.88;3.03;;;18.70;99.40;;;;;;5426025;26;20351;-68
2024/04/13 08:54:57;;;;;;;6.57;2.75;;;18.70;99.20;;;;;;5434134;26;19999;-69
2024/04/13 08:57:26;;;;;;;4.82;2.55;;;18.70;99.30;;;;;;5413137;26;20013;-69
2024/04/13 08:59:53;;;;;;;6.88;2.90;;;18.80;99.20;;;;;;5436858;26;20027;-69
2024/04/13 09:02:23;;;;;;;4.97;2.28;;;18.90;99.00;;;;;;5439486;26;20002;-68
2024/04/13 09:04:52;;;;;;;6.72;2.38;;;18.90;98.90;;;;;;5420531;26;20007;-68
2024/04/13 09:07:20;;;;;;;16.75;2.80;;;19.00;99.00;;;;;;5438193;26;20340;-67
2024/04/13 09:09:53;;;;;;;5.90;2.88;;;19.00;98.70;;;;;;5433894;26;20014;-68
2024/04/13 09:12:19;;;;;;;7.28;2.75;;;19.10;98.70;;;;;;5436227;26;20036;-67
2024/04/13 09:14:46;;;;;;;6.57;2.55;;;19.10;98.40;;;;;;5432860;26;20038;-68
2024/04/13 09:17:13;;;;;;;4.97;2.28;;;19.20;98.60;;;;;;5436811;26;20003;-68
2024/04/13 09:19:38;;;;;;;9.93;2.42;;;19.30;97.60;;;;;;5434408;26;20381;-68
2024/04/13 09:22:06;;;;;;;5.90;2.63;;;19.30;97.90;;;;;;5435164;26;20011;-68
2024/04/13 09:24:41;;;;;;;5.32;2.10;;;19.30;97.40;;;;;;5445676;26;20007;-66
2024/04/13 09:27:16;;;;;;;3.10;1.98;;;19.30;97.10;;;;;;5425461;26;20036;-67
2024/04/13 09:29:42;;;;;;;3.30;1.83;;;19.40;97.10;;;;;;5438055;26;20018;-67
2024/04/13 09:32:07;;;;;;;4.38;1.90;;;19.40;96.90;;;;;;5435620;26;20007;-68
2024/04/13 09:34:36;;;;;;;6.18;2.10;;;19.40;96.40;;;;;;5431934;26;20018;-67
2024/04/13 09:37:07;;;;;;;9.57;3.08;;;19.50;96.90;;;;;;5430689;26;20079;-66
2024/04/13 09:39:33;;;;;;;5.43;1.90;;;19.60;96.10;;;;;;5419622;26;20475;-67
2024/04/13 09:42:05;;;;;;;7.35;2.15;;;19.60;96.10;;;;;;5433366;26;20009;-69
2024/04/13 09:44:31;;;;;;;4.82;1.75;;;19.60;95.40;;;;;;5445042;26;20727;-68
2024/04/13 09:46:57;;;;;;;7.40;1.85;;;19.80;95.70;;;;;;5433678;26;20078;-68
2024/04/13 09:49:23;;;;;;;6.72;1.88;;;19.90;95.10;;;;;;5422446;26;20364;-68
2024/04/13 09:51:50;;;;;;;4.72;1.92;;;20.00;95.00;;;;;;5431729;26;20534;-68
2024/04/13 09:54:16;;;;;;;4.28;1.88;;;20.00;94.90;;;;;;5431199;26;20039;-69
2024/04/13 09:56:46;;;;;;;3.85;1.80;;;20.00;94.90;;;;;;5427140;26;20041;-68
2024/04/13 09:59:20;;;;;;;5.82;2.13;;;20.10;95.10;;;;;;5433210;26;20029;-68
2024/04/13 10:01:49;;;;;;;4.05;1.48;;;20.20;95.00;;;;;;5431845;26;20335;-69
2024/04/13 10:04:15;;;;;;;3.35;1.40;;;20.20;95.10;;;;;;5418312;26;20129;-69
2024/04/13 10:06:40;;;;;;;3.58;1.80;;;20.30;95.20;;;;;;5423269;26;20426;-69
2024/04/13 10:09:13;;;;;;;4.72;1.95;;;20.40;95.40;;;;;;5428649;26;20096;-68
2024/04/13 10:11:43;;;;;;;7.05;1.80;;;20.60;95.60;;;;;;5432051;26;20117;-68
2024/04/13 10:14:11;;;;;;;6.13;1.95;;;20.70;95.60;;;;;;5439509;26;20010;-70
2024/04/13 10:16:39;;;;;;;6.95;2.38;;;20.90;95.60;;;;;;5434254;26;20079;-68
2024/04/13 10:19:05;;;;;;;3.70;1.60;;;21.00;95.70;;;;;;5431803;26;20000;-68
2024/04/13 10:21:34;;;;;;;3.88;1.75;;;21.30;95.80;;;;;;5430016;26;19999;-68
2024/04/13 10:24:00;;;;;;;4.05;1.30;;;21.40;95.20;;;;;;5435867;26;20010;-69
2024/04/13 10:26:27;;;;;;;8.40;1.80;;;21.60;96.00;;;;;;5435828;26;20370;-68
2024/04/13 10:28:59;;;;;;;4.85;1.80;;;21.80;95.30;;;;;;5440005;26;19999;-68
2024/04/13 10:31:31;;;;;;;5.15;1.65;;;21.70;95.20;;;;;;5443667;26;20491;-68
2024/04/13 10:33:57;;;;;;;3.95;1.92;;;21.80;95.80;;;;;;5445636;26;20010;-69
2024/04/13 10:36:28;;;;;;;2.90;2.25;;;22.10;95.40;;;;;;5441398;26;20006;-69
2024/04/13 10:38:58;;;;;;;6.20;1.75;;;22.00;95.50;;;;;;5443840;26;20076;-68
2024/04/13 10:41:31;;;;;;;2.60;1.52;;;22.20;95.20;;;;;;5434743;26;20010;-68
2024/04/13 10:43:58;;;;;;;4.03;1.83;;;22.30;95.30;;;;;;5437302;26;20006;-68
2024/04/13 10:46:24;;;;;;;3.65;1.67;;;22.30;95.50;;;;;;5445098;26;20027;-68
2024/04/13 10:48:52;;;;;;;4.32;1.92;;;22.60;95.70;;;;;;5441008;26;20014;-68
2024/04/13 10:51:18;;;;;;;3.38;1.88;;;22.70;95.90;;;;;;5437939;26;20003;-69
2024/04/13 10:53:45;;;;;;;4.05;1.65;;;23.00;95.30;;;;;;5436848;26;19995;-69
2024/04/13 10:56:10;;;;;;;4.25;2.13;;;23.00;95.50;;;;;;5441783;26;20011;-69
2024/04/13 10:58:36;;;;;;;6.15;2.05;;;23.20;94.60;;;;;;5431634;26;20071;-69
2024/04/13 11:01:03;;;;;;;3.70;2.13;;;23.20;94.80;;;;;;5445109;26;21469;-69
2024/04/13 11:03:30;;;;;;;3.97;1.90;;;23.00;95.00;;;;;;5437009;26;20021;-69
2024/04/13 11:05:56;;;;;;;4.07;1.80;;;23.20;95.30;;;;;;5433946;26;20011;-69
2024/04/13 11:08:23;;;;;;;2.70;1.60;;;23.00;95.20;;;;;;5440480;26;20040;-69
2024/04/13 11:10:52;;;;;;;6.80;2.30;;;22.90;95.00;;;;;;5438769;26;20017;-69
2024/04/13 11:13:19;;;;;;;6.10;2.40;;;22.70;95.20;;;;;;5430969;26;20010;-69
2024/04/13 11:15:44;;;;;;;4.15;1.90;;;22.90;95.00;;;;;;5429704;26;20009;-69
2024/04/13 11:18:10;;;;;;;5.18;1.73;;;23.00;95.00;;;;;;5435425;26;19999;-69
2024/04/13 11:20:37;;;;;;;2.50;1.40;;;22.90;94.70;;;;;;5432834;26;20075;-69
2024/04/13 11:23:04;;;;;;;11.20;2.10;;;22.70;95.00;;;;;;5436037;26;20014;-68
2024/04/13 11:25:29;;;;;;;4.93;2.00;;;22.60;94.80;;;;;;5442958;26;19999;-68
2024/04/13 11:27:56;;;;;;;3.08;1.70;;;22.60;94.90;;;;;;5442820;26;20778;-69
2024/04/13 11:30:22;;;;;;;5.53;2.00;;;22.60;95.00;;;;;;5435236;26;19995;-69
2024/04/13 11:32:48;;;;;;;2.90;1.77;;;22.70;95.20;;;;;;5432628;26;20232;-69
2024/04/13 11:35:14;;;;;;;4.78;1.60;;;22.70;95.20;;;;;;5434842;26;20013;-69
2024/04/13 11:37:40;;;;;;;4.80;1.67;;;22.90;95.40;;;;;;5435486;26;20018;-69
2024/04/13 11:40:12;;;;;;;2.55;1.80;;;22.80;94.70;;;;;;5436247;26;20073;-69
2024/04/13 11:42:39;;;;;;;4.50;1.65;;;22.80;95.00;;;;;;5433846;26;20530;-68
2024/04/13 11:45:06;;;;;;;5.90;2.00;;;23.00;94.90;;;;;;5432753;26;19996;-68
2024/04/13 11:47:31;;;;;;;3.85;1.50;;;23.00;94.80;;;;;;5435438;26;20014;-68
2024/04/13 11:49:57;;;;;;;4.05;2.28;;;23.00;94.70;;;;;;5435786;26;20007;-69
2024/04/13 11:52:24;;;;;;;6.28;1.52;;;22.90;94.60;;;;;;5438756;26;20715;-68
2024/04/13 11:54:50;;;;;;;7.90;2.33;;;23.10;94.90;;;;;;5429542;26;20110;-69
2024/04/13 11:57:16;;;;;;;3.30;2.00;;;23.10;94.70;;;;;;5435263;26;20005;-69
2024/04/13 11:59:42;;;;;;;4.63;1.85;;;23.20;94.30;;;;;;5434844;26;20011;-68
2024/04/13 12:02:07;;;;;;;4.28;2.25;;;23.30;94.40;;;;;;5433824;26;19995;-68
2024/04/13 12:04:33;;;;;;;3.35;1.73;;;23.40;94.20;;;;;;5467751;26;20584;-71
2024/04/13 12:06:59;;;;;;;3.03;1.38;;;23.50;93.90;;;;;;5436528;26;20395;-69
2024/04/13 12:09:25;;;;;;;4.80;1.60;;;23.80;94.10;;;;;;5425179;26;20035;-68
2024/04/13 12:11:50;;;;;;;5.90;1.67;;;24.00;94.20;;;;;;5429443;26;20010;-69
2024/04/13 12:14:16;;;;;;;3.17;1.60;;;23.90;93.90;;;;;;5432082;26;20014;-68
2024/04/13 12:16:44;;;;;;;7.70;1.52;;;24.30;94.20;;;;;;5431405;26;20014;-71
2024/04/13 12:19:09;;;;;;;;;;;24.40;93.60;;;;;;5426781;26;20564;-70
2024/04/13 12:21:36;;;;;;;3.58;1.77;;;24.30;93.10;;;;;;5427723;26;19925;-69
2024/04/13 12:24:03;;;;;;;3.03;1.60;;;24.10;93.50;;;;;;5436762;26;20007;-69
2024/04/13 12:26:29;;;;;;;3.90;1.67;;;24.40;93.70;;;;;;5436841;26;19991;-69
2024/04/13 12:28:55;;;;;;;4.18;1.55;;;24.70;93.20;;;;;;5436578;26;19995;-69
2024/04/13 12:31:21;;;;;;;2.95;1.48;;;24.60;93.00;;;;;;5432915;26;20053;-69
2024/04/13 12:33:46;;;;;;;3.92;1.65;;;24.50;92.90;;;;;;5432463;26;20421;-69
2024/04/13 12:36:12;;;;;;;3.45;1.42;;;24.50;93.40;;;;;;5431624;26;19995;-69
2024/04/13 12:38:38;;;;;;;5.50;1.83;;;24.40;93.50;;;;;;5434095;26;20556;-69